Aviation Digital Data Service (ADDS)

Output produced by METARs form (2349 UTC 28 March 2015)
found at http://www.aviationweather.gov/adds/metars/
 
KPHL 282327Z 2900/3006 32018G24KT P6SM BKN050 OVC070 
     TEMPO 2900/2902 -SN 
     FM290900 33010G20KT P6SM SCT100 
     FM291200 33012KT P6SM SKC 
     FM292000 26007KT P6SM SKC 
     FM300000 20005KT P6SM SCT250